Terminal Aerodrome Forecast
Issued by NWS Twin Cities, MN

Home | Current Version | Previous Version | Text Only | Print | Product List | Glossary On
Versions: 1 2 3 4 5 6 7 8 9 10 11 12 13 14 15 16 17
576
FTUS43 KMPX 172321
TAFEAU
TAF
KEAU 172321Z 1800/1824 14004KT 4SM BR VCSH OVC006
     FM180400 36005KT 3SM BR VCSH OVC008
     FM180600 36008KT P6SM VCSH OVC008
     FM181600 33010KT P6SM OVC070
     FM182100 32014KT P6SM BKN040=

USA.gov is the U.S. government's official web portal to all federal, state and local government web resources and services.